createdAt,value
2022-12-05T00:01:35.297Z,0.84
2022-12-05T00:04:07.015Z,0.81
2022-12-05T00:06:35.220Z,0.75
2022-12-05T00:09:03.144Z,0.91
2022-12-05T00:11:31.504Z,0.86
2022-12-05T00:13:59.901Z,0.80
2022-12-05T00:16:29.170Z,0.78
2022-12-05T00:18:56.621Z,0.78
2022-12-05T00:21:25.901Z,0.76
2022-12-05T00:23:55.200Z,0.84
2022-12-05T00:26:22.318Z,0.87
2022-12-05T00:28:49.741Z,0.86
2022-12-05T00:31:21.834Z,0.93
2022-12-05T00:33:49.243Z,0.94
2022-12-05T00:36:21.763Z,0.88
2022-12-05T00:38:48.842Z,0.87
2022-12-05T00:41:18.485Z,0.82
2022-12-05T00:43:45.640Z,0.75
2022-12-05T00:46:18.205Z,0.76
2022-12-05T00:48:45.608Z,0.79
2022-12-05T00:51:18.992Z,0.77
2022-12-05T00:53:46.594Z,0.77
2022-12-05T00:56:16.735Z,0.83
2022-12-05T00:58:44.108Z,0.88
2022-12-05T01:01:15.716Z,1.20
2022-12-05T01:03:44.591Z,1.12
2022-12-05T01:06:12.835Z,0.99
2022-12-05T01:08:39.559Z,0.98
2022-12-05T01:11:08.087Z,0.92
2022-12-05T01:13:36.367Z,0.91
2022-12-05T01:16:03.925Z,0.92
2022-12-05T01:18:30.871Z,0.87
2022-12-05T01:20:57.663Z,0.86
2022-12-05T01:23:24.714Z,0.96
2022-12-05T01:25:52.384Z,1.09
2022-12-05T01:28:18.957Z,0.96
2022-12-05T01:30:47.635Z,1.05
2022-12-05T01:33:14.473Z,1.01
2022-12-05T01:35:41.748Z,0.94
2022-12-05T01:38:10.038Z,0.94
2022-12-05T01:40:36.934Z,0.95
2022-12-05T01:43:04.684Z,0.85
2022-12-05T01:45:38.060Z,1.12
2022-12-05T01:48:13.845Z,1.30
2022-12-05T01:50:40.478Z,1.12
2022-12-05T01:53:07.119Z,0.91
2022-12-05T01:55:35.612Z,0.92
2022-12-05T01:58:05.175Z,0.80
2022-12-05T02:00:31.823Z,0.81
2022-12-05T02:03:02.568Z,0.91
2022-12-05T02:05:35.187Z,0.79
2022-12-05T02:08:06.513Z,0.73
2022-12-05T02:10:41.245Z,0.77
2022-12-05T02:13:28.814Z,0.70
2022-12-05T02:16:07.958Z,0.70
2022-12-05T02:19:06.783Z,0.72
2022-12-05T02:21:45.439Z,0.67
2022-12-05T02:24:27.148Z,0.69
2022-12-05T02:27:31.329Z,0.75
2022-12-05T02:30:14.445Z,0.95
2022-12-05T02:33:01.659Z,0.83
2022-12-05T02:35:34.141Z,0.71
2022-12-05T02:38:12.751Z,1.05
2022-12-05T02:41:00.581Z,0.87
2022-12-05T02:44:11.321Z,0.79
2022-12-05T02:46:40.512Z,1.06
2022-12-05T02:49:18.880Z,1.25
2022-12-05T02:51:50.156Z,0.91
2022-12-05T02:54:21.250Z,0.76
2022-12-05T02:56:49.593Z,0.88
2022-12-05T02:59:22.870Z,1.05
2022-12-05T03:01:50.254Z,0.76
2022-12-05T03:04:20.091Z,0.83
2022-12-05T03:06:55.355Z,0.77
2022-12-05T03:09:32.271Z,0.85
2022-12-05T03:12:22.846Z,0.75
2022-12-05T03:15:22.850Z,0.78
2022-12-05T03:17:57.073Z,0.93
2022-12-05T03:20:28.592Z,0.86
2022-12-05T03:23:17.630Z,1.00
2022-12-05T03:26:14.325Z,1.00
2022-12-05T03:28:59.437Z,1.00
2022-12-05T03:31:45.763Z,1.39
2022-12-05T03:34:20.873Z,1.08
2022-12-05T03:36:52.196Z,1.04
2022-12-05T03:39:24.446Z,1.02
2022-12-05T03:42:28.860Z,1.20
2022-12-05T03:45:06.361Z,1.14
2022-12-05T03:47:41.043Z,1.16
2022-12-05T03:50:15.872Z,1.31
2022-12-05T03:53:17.896Z,1.49
2022-12-05T03:55:39.305Z,1.41
2022-12-05T03:58:15.340Z,1.02
2022-12-05T04:00:45.293Z,0.92
2022-12-05T04:03:17.789Z,0.99
2022-12-05T04:05:58.783Z,1.02
2022-12-05T04:08:31.858Z,1.36
2022-12-05T04:11:03.144Z,1.45
2022-12-05T04:13:37.688Z,1.40
2022-12-05T04:16:38.497Z,1.28
2022-12-05T04:19:27.539Z,1.19
2022-12-05T04:21:56.072Z,1.32
2022-12-05T04:24:49.021Z,1.26
2022-12-05T04:27:15.532Z,1.35
2022-12-05T04:30:06.358Z,1.42
2022-12-05T04:32:46.923Z,1.45
2022-12-05T04:35:20.265Z,1.42
2022-12-05T04:37:51.552Z,1.41
2022-12-05T04:40:35.356Z,1.26
2022-12-05T04:43:03.658Z,1.19
2022-12-05T04:45:32.794Z,1.11
2022-12-05T04:48:04.886Z,1.07
2022-12-05T04:50:33.739Z,1.04
2022-12-05T04:53:02.535Z,1.12
2022-12-05T04:55:31.764Z,1.07
2022-12-05T04:58:19.414Z,1.05
2022-12-05T05:01:12.979Z,1.05
2022-12-05T05:03:45.770Z,1.07
2022-12-05T05:06:13.752Z,1.04
2022-12-05T05:08:55.576Z,1.04
2022-12-05T05:11:29.550Z,1.05
2022-12-05T05:13:56.198Z,1.09
2022-12-05T05:16:24.308Z,1.15
2022-12-05T05:18:52.117Z,1.27
2022-12-05T05:21:24.425Z,1.17
2022-12-05T05:23:51.192Z,1.18
2022-12-05T05:26:18.659Z,1.04
2022-12-05T05:28:46.223Z,0.97
2022-12-05T05:31:13.926Z,0.94
2022-12-05T05:33:40.736Z,0.99
2022-12-05T05:36:13.285Z,1.00
2022-12-05T05:38:50.987Z,1.05
2022-12-05T05:41:19.077Z,1.00
2022-12-05T05:43:46.495Z,1.01
2022-12-05T05:46:13.982Z,0.98
2022-12-05T05:48:41.252Z,0.99
2022-12-05T05:51:11.138Z,0.95
2022-12-05T05:53:38.411Z,1.06
2022-12-05T05:56:11.108Z,1.03
2022-12-05T05:58:38.178Z,1.04
2022-12-05T06:01:13.745Z,1.02
2022-12-05T06:03:40.617Z,1.06
2022-12-05T06:06:10.444Z,1.09
2022-12-05T06:08:39.745Z,1.08
2022-12-05T06:11:09.685Z,1.22
2022-12-05T06:13:36.612Z,1.19
2022-12-05T06:16:06.664Z,1.20
2022-12-05T06:18:33.835Z,1.28
2022-12-05T06:21:00.462Z,1.24
2022-12-05T06:23:28.030Z,1.22
2022-12-05T06:25:56.077Z,1.19
2022-12-05T06:28:26.734Z,1.18
2022-12-05T06:30:53.441Z,1.21
2022-12-05T06:33:20.541Z,1.22
2022-12-05T06:35:47.585Z,1.26
2022-12-05T06:38:14.603Z,1.30
2022-12-05T06:40:45.165Z,1.37
2022-12-05T06:43:12.109Z,1.26
2022-12-05T06:45:39.175Z,1.22
2022-12-05T06:48:06.521Z,1.22
2022-12-05T06:50:33.385Z,1.15
2022-12-05T06:52:59.961Z,1.17
2022-12-05T06:55:26.499Z,1.20
2022-12-05T06:57:53.078Z,1.26
2022-12-05T07:00:38.449Z,1.23
2022-12-05T07:03:05.106Z,1.28
2022-12-05T07:05:32.930Z,1.24
2022-12-05T07:07:59.548Z,1.28
2022-12-05T07:10:26.152Z,1.28
2022-12-05T07:12:52.731Z,1.29
2022-12-05T07:15:19.294Z,1.34
2022-12-05T07:17:45.845Z,1.33
2022-12-05T07:20:12.786Z,1.37
2022-12-05T07:22:39.360Z,1.43
2022-12-05T07:25:06.305Z,1.48
2022-12-05T07:27:34.107Z,1.47
2022-12-05T07:30:01.283Z,1.49
2022-12-05T07:32:33.325Z,1.52
2022-12-05T07:34:59.937Z,1.50
2022-12-05T07:37:26.481Z,1.46
2022-12-05T07:39:53.483Z,1.51
2022-12-05T07:42:20.131Z,1.54
2022-12-05T07:44:46.712Z,1.59
2022-12-05T07:47:13.662Z,1.58
2022-12-05T07:49:40.296Z,1.60
2022-12-05T07:52:06.946Z,1.64
2022-12-05T07:54:33.882Z,1.75
2022-12-05T07:57:00.435Z,1.85
2022-12-05T07:59:27.024Z,1.88
2022-12-05T08:01:53.638Z,1.97
2022-12-05T08:04:20.212Z,2.11
2022-12-05T08:06:46.863Z,2.07
2022-12-05T08:09:13.486Z,2.15
2022-12-05T08:11:40.069Z,2.14
2022-12-05T08:14:08.165Z,2.17
2022-12-05T08:16:34.874Z,2.19
2022-12-05T08:19:04.664Z,2.17
2022-12-05T08:21:31.711Z,2.10
2022-12-05T08:23:58.762Z,2.18
2022-12-05T08:26:27.864Z,2.25
2022-12-05T08:28:58.117Z,2.25
2022-12-05T08:31:25.947Z,2.32
2022-12-05T08:33:58.787Z,2.37
2022-12-05T08:36:27.600Z,2.37
2022-12-05T08:38:59.739Z,2.25
2022-12-05T08:41:28.949Z,2.28
2022-12-05T08:43:57.038Z,2.32
2022-12-05T08:46:24.232Z,2.32
2022-12-05T08:48:51.577Z,2.30
2022-12-05T08:51:18.237Z,2.30
2022-12-05T08:53:45.079Z,2.37
2022-12-05T08:56:12.493Z,2.42
2022-12-05T08:58:39.860Z,2.51
2022-12-05T09:01:08.117Z,2.61
2022-12-05T09:03:35.049Z,2.64
2022-12-05T09:06:13.616Z,2.57
2022-12-05T09:08:41.163Z,2.53
2022-12-05T09:11:16.336Z,2.56
2022-12-05T09:13:43.330Z,2.56
2022-12-05T09:16:13.027Z,2.59
2022-12-05T09:18:39.708Z,2.56
2022-12-05T09:21:11.436Z,2.54
2022-12-05T09:23:38.293Z,2.55
2022-12-05T09:26:06.409Z,2.62
2022-12-05T09:28:34.070Z,2.67
2022-12-05T09:31:09.257Z,2.72
2022-12-05T09:33:37.888Z,2.76
2022-12-05T09:36:07.502Z,2.74
2022-12-05T09:38:34.745Z,2.67
2022-12-05T09:41:14.692Z,2.72
2022-12-05T09:43:50.224Z,2.71
2022-12-05T09:46:35.922Z,2.68
2022-12-05T09:49:05.188Z,2.74
2022-12-05T09:51:32.705Z,2.72
2022-12-05T09:53:59.292Z,2.73
2022-12-05T09:56:30.768Z,2.82
2022-12-05T09:59:00.837Z,2.79
2022-12-05T10:01:33.535Z,2.85
2022-12-05T10:04:39.081Z,2.87
2022-12-05T10:07:28.938Z,2.82
2022-12-05T10:10:04.722Z,2.80
2022-12-05T10:12:53.774Z,2.85
2022-12-05T10:15:32.573Z,2.95
2022-12-05T10:18:11.399Z,2.99
2022-12-05T10:20:44.945Z,2.96
2022-12-05T10:23:49.047Z,2.97
2022-12-05T10:26:11.668Z,3.04
2022-12-05T10:28:48.056Z,3.03
2022-12-05T10:31:19.346Z,3.05
2022-12-05T10:33:51.630Z,2.99
2022-12-05T10:36:18.194Z,3.03
2022-12-05T10:38:46.251Z,3.07
2022-12-05T10:41:14.900Z,3.05
2022-12-05T10:43:44.015Z,3.19
2022-12-05T10:46:17.425Z,3.27
2022-12-05T10:48:44.305Z,3.29
2022-12-05T10:51:17.818Z,3.29
2022-12-05T10:53:49.510Z,3.27
2022-12-05T10:57:01.865Z,3.22
2022-12-05T10:59:45.782Z,3.17
2022-12-05T11:02:28.527Z,3.27
2022-12-05T11:04:56.083Z,3.35
2022-12-05T11:07:44.479Z,3.33
2022-12-05T11:10:26.119Z,3.45
2022-12-05T11:12:57.130Z,3.40
2022-12-05T11:15:27.964Z,3.41
2022-12-05T11:17:56.974Z,4.10
2022-12-05T11:20:23.467Z,4.03
2022-12-05T11:22:52.442Z,3.80
2022-12-05T11:25:37.342Z,3.72
2022-12-05T11:28:37.985Z,3.75
2022-12-05T11:31:16.476Z,3.76
2022-12-05T11:33:43.161Z,3.73
2022-12-05T11:36:22.755Z,3.70
2022-12-05T11:38:49.917Z,3.68
2022-12-05T11:41:34.042Z,4.04
2022-12-05T11:44:27.339Z,4.10
2022-12-05T11:47:25.910Z,4.41
2022-12-05T11:50:18.001Z,4.21
2022-12-05T11:52:54.687Z,4.08
2022-12-05T11:55:36.788Z,4.04
2022-12-05T11:58:42.480Z,4.05
2022-12-05T12:01:37.683Z,4.09
2022-12-05T12:04:25.647Z,4.35
2022-12-05T12:07:39.457Z,4.19
2022-12-05T12:10:43.741Z,4.05
2022-12-05T12:13:40.541Z,4.15
2022-12-05T12:16:17.273Z,3.96
2022-12-05T12:18:52.939Z,3.90
2022-12-05T12:21:35.410Z,3.95
2022-12-05T12:24:26.411Z,4.31
2022-12-05T12:27:20.926Z,4.16
2022-12-05T12:30:15.565Z,4.02
2022-12-05T12:33:03.718Z,3.86
2022-12-05T12:35:31.565Z,3.96
2022-12-05T12:38:28.633Z,4.11
2022-12-05T12:41:00.332Z,4.07
2022-12-05T12:43:53.637Z,3.94
2022-12-05T12:46:39.158Z,3.98
2022-12-05T12:49:20.902Z,3.74
2022-12-05T12:51:54.537Z,3.76
2022-12-05T12:55:03.399Z,4.01
2022-12-05T12:57:49.288Z,4.07
2022-12-05T13:00:18.691Z,3.88
2022-12-05T13:02:49.167Z,3.69
2022-12-05T13:05:22.775Z,3.59
2022-12-05T13:08:01.943Z,3.43
2022-12-05T13:10:35.883Z,3.50
2022-12-05T13:13:05.001Z,3.56
2022-12-05T13:15:41.002Z,3.45
2022-12-05T13:18:16.218Z,3.38
2022-12-05T13:20:44.394Z,3.56
2022-12-05T13:23:18.112Z,3.78
2022-12-05T13:25:46.204Z,3.63
2022-12-05T13:28:42.174Z,3.45
2022-12-05T13:31:11.213Z,3.32
2022-12-05T13:33:46.601Z,3.64
2022-12-05T13:36:35.681Z,3.73
2022-12-05T13:39:24.334Z,3.49
2022-12-05T13:42:12.558Z,3.38
2022-12-05T13:44:43.836Z,3.30
2022-12-05T13:47:31.453Z,3.24
2022-12-05T13:50:07.305Z,3.20
2022-12-05T13:53:17.580Z,3.18
2022-12-05T13:55:58.656Z,3.16
2022-12-05T13:58:25.235Z,3.15
2022-12-05T14:01:26.855Z,3.40
2022-12-05T14:04:02.147Z,3.26
2022-12-05T14:06:38.101Z,3.19
2022-12-05T14:09:16.742Z,3.22
2022-12-05T14:12:11.455Z,3.10
2022-12-05T14:15:00.533Z,3.17
2022-12-05T14:17:29.399Z,3.13
2022-12-05T14:20:05.070Z,3.28
2022-12-05T14:22:53.703Z,3.45
2022-12-05T14:25:32.800Z,3.57
2022-12-05T14:28:12.139Z,3.34
2022-12-05T14:31:16.393Z,3.22
2022-12-05T14:33:43.225Z,3.21
2022-12-05T14:36:18.748Z,3.39
2022-12-05T14:38:45.392Z,3.61
2022-12-05T14:41:35.415Z,3.60
2022-12-05T14:44:08.451Z,3.66
2022-12-05T14:46:35.702Z,3.37
2022-12-05T14:49:46.962Z,3.23
2022-12-05T14:52:21.694Z,3.19
2022-12-05T14:54:52.336Z,3.33
2022-12-05T14:57:20.135Z,3.26
2022-12-05T14:59:53.803Z,3.37
2022-12-05T15:02:29.330Z,3.15
2022-12-05T15:05:05.756Z,3.04
2022-12-05T15:07:38.745Z,3.28
2022-12-05T15:10:20.858Z,3.08
2022-12-05T15:12:52.398Z,2.94
2022-12-05T15:15:19.924Z,3.02
2022-12-05T15:17:51.654Z,3.16
2022-12-05T15:20:24.266Z,2.97
2022-12-05T15:22:50.863Z,2.85
2022-12-05T15:25:30.443Z,2.77
2022-12-05T15:28:00.406Z,2.78
2022-12-05T15:30:28.523Z,2.79
2022-12-05T15:32:59.379Z,2.71
2022-12-05T15:35:28.839Z,3.16
2022-12-05T15:38:04.522Z,3.31
2022-12-05T15:40:38.596Z,3.38
2022-12-05T15:43:26.002Z,3.09
2022-12-05T15:46:07.644Z,2.94
2022-12-05T15:48:34.435Z,2.77
2022-12-05T15:51:02.877Z,2.70
2022-12-05T15:53:37.616Z,2.66
2022-12-05T15:56:11.936Z,2.70
2022-12-05T15:58:47.564Z,2.66
2022-12-05T16:01:20.419Z,2.67
2022-12-05T16:03:53.572Z,2.59
2022-12-05T16:06:35.969Z,2.68
2022-12-05T16:09:11.553Z,2.65
2022-12-05T16:11:38.713Z,2.58
2022-12-05T16:14:07.638Z,2.62
2022-12-05T16:16:37.514Z,2.53
2022-12-05T16:19:17.065Z,2.48
2022-12-05T16:21:58.830Z,2.49
2022-12-05T16:24:31.425Z,2.51
2022-12-05T16:27:13.508Z,2.47
2022-12-05T16:29:40.837Z,2.47
2022-12-05T16:32:21.635Z,2.59
2022-12-05T16:34:48.402Z,2.45
2022-12-05T16:37:27.841Z,2.46
2022-12-05T16:39:54.745Z,2.59
2022-12-05T16:42:30.065Z,2.43
2022-12-05T16:45:02.115Z,2.47
2022-12-05T16:47:41.116Z,2.39
2022-12-05T16:50:26.071Z,2.40
2022-12-05T16:53:13.432Z,2.32
2022-12-05T16:55:43.630Z,2.34
2022-12-05T16:58:30.647Z,2.33
2022-12-05T17:01:03.627Z,2.32
2022-12-05T17:03:35.431Z,2.28
2022-12-05T17:06:02.524Z,2.27
2022-12-05T17:08:29.438Z,2.25
2022-12-05T17:10:57.913Z,2.23
2022-12-05T17:13:24.674Z,2.25
2022-12-05T17:15:51.364Z,2.23
2022-12-05T17:18:20.696Z,2.17
2022-12-05T17:20:53.689Z,2.23
2022-12-05T17:23:20.470Z,2.26
2022-12-05T17:25:51.491Z,2.16
2022-12-05T17:28:18.659Z,2.10
2022-12-05T17:30:45.205Z,2.06
2022-12-05T17:33:14.273Z,2.04
2022-12-05T17:35:41.037Z,1.97
2022-12-05T17:38:07.752Z,1.94
2022-12-05T17:40:34.803Z,1.94
2022-12-05T17:43:01.450Z,1.94
2022-12-05T17:45:28.107Z,1.91
2022-12-05T17:47:55.728Z,1.87
2022-12-05T17:50:23.853Z,1.87
2022-12-05T17:52:54.180Z,1.85
2022-12-05T17:55:28.962Z,1.84
2022-12-05T17:57:55.625Z,1.85
2022-12-05T18:00:24.059Z,1.86
2022-12-05T18:02:52.257Z,1.83
2022-12-05T18:05:18.981Z,1.81
2022-12-05T18:07:46.144Z,1.88
2022-12-05T18:10:16.562Z,1.99
2022-12-05T18:12:43.589Z,1.92
2022-12-05T18:15:10.830Z,1.90
2022-12-05T18:17:37.446Z,1.89
2022-12-05T18:20:05.795Z,1.86
2022-12-05T18:22:32.886Z,1.89
2022-12-05T18:25:00.473Z,1.99
2022-12-05T18:27:27.439Z,1.97
2022-12-05T18:29:54.043Z,2.02
2022-12-05T18:32:21.025Z,1.95
2022-12-05T18:34:47.730Z,1.90
2022-12-05T18:37:16.438Z,1.90
2022-12-05T18:39:42.971Z,1.90
2022-12-05T18:42:14.960Z,1.88
2022-12-05T18:44:42.298Z,1.88
2022-12-05T18:47:09.088Z,1.88
2022-12-05T18:49:35.807Z,1.92
2022-12-05T18:52:02.399Z,1.94
2022-12-05T18:54:28.939Z,1.87
2022-12-05T18:56:55.497Z,1.94
2022-12-05T18:59:22.454Z,1.96
2022-12-05T19:01:50.366Z,1.90
2022-12-05T19:04:19.871Z,1.90
2022-12-05T19:06:52.891Z,1.94
2022-12-05T19:09:22.480Z,1.91
2022-12-05T19:11:52.185Z,1.93
2022-12-05T19:14:19.477Z,1.94
2022-12-05T19:16:48.976Z,1.85
2022-12-05T19:19:17.390Z,1.85
2022-12-05T19:21:45.389Z,1.92
2022-12-05T19:24:14.640Z,1.89
2022-12-05T19:26:41.543Z,1.88
2022-12-05T19:29:10.661Z,1.84
2022-12-05T19:31:37.266Z,1.83
2022-12-05T19:34:05.952Z,1.82
2022-12-05T19:36:38.927Z,1.79
2022-12-05T19:39:17.594Z,1.82
2022-12-05T19:41:44.671Z,1.74
2022-12-05T19:44:11.355Z,1.71
2022-12-05T19:46:38.056Z,1.75
2022-12-05T19:49:07.448Z,1.75
2022-12-05T19:51:34.629Z,1.76
2022-12-05T19:54:03.666Z,1.73
2022-12-05T19:56:31.917Z,1.74
2022-12-05T19:58:59.181Z,1.69
2022-12-05T20:01:30.040Z,1.70
2022-12-05T20:04:02.060Z,1.76
2022-12-05T20:06:40.884Z,1.81
2022-12-05T20:09:08.915Z,1.77
2022-12-05T20:11:38.707Z,1.75
2022-12-05T20:14:06.061Z,1.67
2022-12-05T20:16:33.798Z,1.66
2022-12-05T20:19:00.987Z,1.68
2022-12-05T20:21:30.136Z,1.69
2022-12-05T20:23:58.014Z,1.67
2022-12-05T20:26:27.271Z,1.64
2022-12-05T20:28:56.448Z,1.65
2022-12-05T20:31:26.188Z,1.68
2022-12-05T20:33:54.084Z,1.69
2022-12-05T20:36:32.380Z,1.65
2022-12-05T20:39:01.998Z,1.69
2022-12-05T20:41:28.995Z,1.59
2022-12-05T20:43:58.246Z,1.58
2022-12-05T20:46:25.372Z,1.62
2022-12-05T20:48:53.470Z,1.77
2022-12-05T20:51:21.328Z,1.70
2022-12-05T20:53:48.272Z,1.64
2022-12-05T20:56:17.670Z,1.66
2022-12-05T20:58:46.718Z,1.58
2022-12-05T21:01:14.612Z,1.63
2022-12-05T21:03:42.706Z,1.51
2022-12-05T21:06:12.295Z,1.54
2022-12-05T21:08:39.130Z,1.60
2022-12-05T21:11:07.387Z,1.57
2022-12-05T21:13:34.308Z,1.50
2022-12-05T21:16:10.958Z,1.51
2022-12-05T21:18:38.302Z,1.58
2022-12-05T21:21:07.890Z,1.50
2022-12-05T21:23:34.921Z,1.52
2022-12-05T21:26:04.104Z,1.46
2022-12-05T21:28:31.867Z,1.47
2022-12-05T21:31:11.543Z,1.38
2022-12-05T21:33:39.082Z,1.43
2022-12-05T21:36:06.751Z,1.51
2022-12-05T21:38:34.035Z,1.47
2022-12-05T21:41:01.803Z,1.45
2022-12-05T21:43:28.369Z,1.40
2022-12-05T21:45:56.054Z,1.42
2022-12-05T21:48:24.031Z,1.38
2022-12-05T21:50:51.319Z,1.36
2022-12-05T21:53:18.642Z,1.31
2022-12-05T21:55:45.415Z,1.28
2022-12-05T21:58:12.373Z,1.30
2022-12-05T22:00:39.596Z,1.31
2022-12-05T22:03:06.899Z,1.25
2022-12-05T22:05:33.563Z,1.28
2022-12-05T22:08:04.787Z,1.22
2022-12-05T22:10:34.436Z,1.13
2022-12-05T22:13:00.983Z,1.23
2022-12-05T22:15:27.562Z,1.30
2022-12-05T22:17:54.291Z,1.22
2022-12-05T22:20:20.829Z,1.15
2022-12-05T22:22:47.471Z,1.13
2022-12-05T22:25:15.029Z,1.11
2022-12-05T22:27:41.680Z,1.08
2022-12-05T22:30:08.852Z,1.22
2022-12-05T22:32:35.391Z,1.21
2022-12-05T22:35:04.032Z,1.33
2022-12-05T22:37:31.190Z,1.42
2022-12-05T22:39:58.064Z,1.40
2022-12-05T22:42:26.736Z,1.29
2022-12-05T22:44:53.557Z,1.18
2022-12-05T22:47:20.127Z,1.26
2022-12-05T22:49:46.809Z,1.44
2022-12-05T22:52:13.399Z,1.35
2022-12-05T22:54:39.962Z,1.30
2022-12-05T22:57:06.582Z,1.26
2022-12-05T22:59:33.195Z,1.24
2022-12-05T23:01:59.956Z,1.25
2022-12-05T23:04:26.622Z,1.28
2022-12-05T23:06:53.219Z,1.30
2022-12-05T23:09:20.527Z,1.28
2022-12-05T23:11:49.711Z,1.33
2022-12-05T23:14:16.267Z,1.32
2022-12-05T23:16:42.900Z,1.41
2022-12-05T23:19:09.576Z,1.43
2022-12-05T23:21:40.465Z,1.44
2022-12-05T23:24:10.059Z,1.42
2022-12-05T23:26:42.541Z,1.58
2022-12-05T23:29:10.152Z,1.49
2022-12-05T23:31:36.805Z,1.44
2022-12-05T23:34:04.341Z,1.42
2022-12-05T23:36:32.872Z,1.39
2022-12-05T23:38:59.749Z,1.40
2022-12-05T23:41:27.393Z,1.39
2022-12-05T23:43:55.322Z,1.39
2022-12-05T23:46:24.621Z,1.37
2022-12-05T23:48:51.910Z,1.38
2022-12-05T23:51:22.948Z,1.40
2022-12-05T23:53:55.525Z,1.41
2022-12-05T23:56:25.178Z,1.44
2022-12-05T23:58:52.095Z,1.45
